Monday, June 25, 2018, 12:14 AM EDT
Back to Local

KABE, Lehigh Valley International Airport

Location: Allentown, PA, United States Lat: 40.65
Local Time: 12:14 AM EDT ( 4:14 GMT) Lon: -75.45
Time Zone: US/Eastern Elev: 393 ft

Show me the last for .
Show Decoded

2018-06-24 23:51 METAR KABE 250351Z 26009KT 10SM CLR 22/17 A2987 RMK AO2 SLP112 T02220172 =
2018-06-24 22:51 METAR KABE 250251Z 27009KT 10SM CLR 22/17 A2987 RMK AO2 SLP110 60000 T02220172
                 51012 =
2018-06-24 21:51 METAR KABE 250151Z 28005KT 10SM OVC110 23/18 A2987 RMK AO2 SLP110 T02280178 =
2018-06-24 20:51 METAR KABE 250051Z 27004KT 10SM BKN100 22/18 A2984 RMK AO2 RAE06 SLP101 P0000
                 T02220178 =
2018-06-24 19:51 METAR KABE 242351Z 32013G19KT 10SM -RA BKN048 BKN070 OVC080 24/18 A2983 RMK AO2
                 LTG DSNT NE AND E RAB51 SLP098 P0000 60000 T02390183 10317 20239 51016 =
2018-06-24 19:08 METAR KABE 242308Z 29006KT 10SM VCTS SCT055 28/17 A2979 RMK AO2 LTG DSNT NW
                 T02830172 =
2018-06-24 18:51 METAR KABE 242251Z 27010KT 10SM CLR 29/17 A2979 RMK AO2 LTG DSNT N AND SW SLP083
                 T02890172 =
2018-06-24 17:51 METAR KABE 242151Z 24014G21KT 10SM FEW110 29/17 A2978 RMK AO2 SLP082 T02890172 =
2018-06-24 16:51 METAR KABE 242051Z 26010KT 10SM FEW120 30/18 A2979 RMK AO2 SLP082 T03000183
                 56009 =
2018-06-24 15:51 METAR KABE 241951Z 24011G21KT 10SM FEW049 SCT060 31/18 A2980 RMK AO2 SLP085
                 T03060178 =
2018-06-24 14:51 METAR KABE 241851Z 23011G17KT 10SM FEW043 SCT080 BKN095 30/18 A2979 RMK AO2
                 SLP085 T03000178 =
2018-06-24 13:51 METAR KABE 241751Z 24015G22KT 10SM FEW043 FEW070 BKN090 29/19 A2981 RMK AO2
                 SLP093 60000 T02940189 10300 20217 58009 =
2018-06-24 12:51 METAR KABE 241651Z 24011G16KT 10SM FEW036 SCT043 SCT050 29/19 A2983 RMK AO2
                 SLP098 T02890194 =
2018-06-24 12:11 METAR KABE 241611Z 25006KT 10SM FEW090 28/20 A2983 RMK AO2 T02780200 =
2018-06-24 11:51 METAR KABE 241551Z 24006KT 10SM SCT018 27/19 A2983 RMK AO2 RAB41E51 SLP100 P0000
                 T02670189 =
2018-06-24 10:51 METAR KABE 241451Z 28009KT 240V310 10SM CLR 27/20 A2984 RMK AO2 SLP102 T02720200
                 55002 =
2018-06-24 10:29 METAR KABE 241429Z 25009G14KT 230V290 10SM SCT022 27/20 A2984 RMK AO2 T02670200
                 =
2018-06-24 10:19 METAR KABE 241419Z 26008KT 10SM BKN022 26/20 A2984 RMK AO2 T02610200 =
2018-06-24 09:51 METAR KABE 241351Z 25005KT 10SM SCT018 25/20 A2983 RMK AO2 SLP100 T02500200 =
2018-06-24 09:40 METAR KABE 241340Z 24007KT 9SM SCT016 25/20 A2984 =
2018-06-24 08:58 METAR KABE 241258Z 22004KT 6SM4 BKN075 23/19 A2985 RMK AO2 T02330194  =
2018-06-24 08:51 METAR KABE 241251Z 22004KT 3SM HZ BKN008 23/19 A2985 RMK AO2 SFC VIS 6 SLP104
                 T02280194 =
2018-06-24 07:51 METAR KABE 241151Z 27005KT 3SM BR BKN008 22/19 A2985 RMK AO2 SFC VIS 4 SLP104
                 60009 70010 T02170194 10217 20200 51005 =
2018-06-24 07:48 METAR KABE 241148Z 28005KT 3SM BR BKN008 22/19 A2984 RMK AO2 SFC VIS 4 =
2018-06-24 07:39 METAR KABE 241139Z 25006KT 3SM BR SCT008 22/19 A2984 RMK AO2 SFC VIS 4 T02170194
                 =
2018-06-24 07:27 METAR KABE 241127Z 26005KT 2 1/2SM BR SCT010 22/19 A2984 RMK AO2 SFC VIS 4
                 T02170194 =
2018-06-24 06:51 METAR KABE 241051Z 22005KT 2 1/2SM BR BKN011 21/19 A2984 RMK AO2 SLP100
                 T02110194 =
2018-06-24 06:25 METAR KABE 241025Z 22003KT 2SM BR FEW009 SCT013 SCT044 21/19 A2983 RMK AO2
                 T02060189 =
2018-06-24 06:06 METAR KABE 241006Z 22005KT 2 1/2SM BR FEW015 SCT022 BKN044 21/19 A2983 RMK AO2
                 T02110189 =
2018-06-24 05:51 METAR KABE 240951Z 20005KT 2 1/2SM BR FEW007 BKN016 OVC040 21/19 A2983 RMK AO2
                 SLP098 T02110189 =
2018-06-24 05:42 METAR KABE 240942Z 21005KT 2 1/2SM BR SCT006 BKN016 OVC024 21/19 A2983 RMK AO2
                 T02060189 =
2018-06-24 05:35 METAR KABE 240935Z 22004KT 3SM BR SCT006 BKN024 OVC039 21/19 A2983 RMK AO2
                 T02060189 =
2018-06-24 04:51 METAR KABE 240851Z AUTO 00000KT 3SM BR OVC006 21/19 A2981 RMK AO2 SLP092 60009
                 T02060189 55004 =
2018-06-24 03:51 METAR KABE 240751Z AUTO 00000KT 4SM BR OVC006 21/19 A2981 RMK AO2 RAE38 SLP092
                 P0003 T02060189 =
2018-06-24 03:38 METAR KABE 240738Z AUTO 00000KT 3SM BR OVC006 20/18 A2981 RMK AO2 RAE38 P0003
                 T02000183 =
2018-06-24 03:19 METAR KABE 240719Z AUTO 00000KT 2SM RA BR SCT004 BKN007 OVC013 20/19 A2981 RMK
                 AO2 P0002 T02000189 =
2018-06-24 03:07 METAR KABE 240707Z AUTO 00000KT 3SM -RA BR FEW007 BKN012 OVC021 21/19 A2982 RMK
                 AO2 P0000 T02060189 =
2018-06-24 02:51 METAR KABE 240651Z AUTO 15004KT 3SM -RA BR FEW007 BKN018 OVC026 21/18 A2981 RMK
                 AO2 RAB04 SLP092 P0006 T02060183 =
2018-06-24 01:51 METAR KABE 240551Z AUTO 00000KT 7SM OVC009 21/18 A2982 RMK AO2 RAB20E34 SLP096
                 P0000 60000 T02060183 10217 20206 58005 =
2018-06-24 01:19 METAR KABE 240519Z AUTO 12003KT 8SM OVC011 21/18 A2982 RMK AO2 T02060178 =
2018-06-24 01:11 METAR KABE 240511Z AUTO 12003KT 8SM BKN009 OVC013 21/18 A2982 RMK AO2 T02060178
                 =
2018-06-24 00:51 METAR KABE 240451Z AUTO 13003KT 8SM OVC011 21/18 A2983 RMK AO2 SLP098 T02060178
                 402220178 =

Support USWX by starting your Amazon purchase here.